createdAt,value
2022-12-12T00:18:29.212Z,18.2
2022-12-12T00:48:29.219Z,18.1
2022-12-12T01:18:29.224Z,18.0
2022-12-12T01:48:29.250Z,18.0
2022-12-12T02:18:29.234Z,17.9
2022-12-12T02:48:29.284Z,17.8
2022-12-12T03:18:29.247Z,17.8
2022-12-12T03:48:29.272Z,17.6
2022-12-12T04:18:29.305Z,17.7
2022-12-12T04:48:28.978Z,17.7
2022-12-12T05:18:29.257Z,18.1
2022-12-12T05:48:28.979Z,18.1
2022-12-12T06:18:29.237Z,18.5
2022-12-12T06:48:29.312Z,18.6
2022-12-12T07:18:29.328Z,18.6
2022-12-12T07:48:29.372Z,18.7
2022-12-12T08:18:29.253Z,18.8
2022-12-12T08:48:29.284Z,18.8
2022-12-12T09:18:29.245Z,18.9
2022-12-12T09:48:29.259Z,19.0
2022-12-12T10:18:29.258Z,19.0
2022-12-12T10:48:29.330Z,19.0
2022-12-12T11:18:29.268Z,19.0
2022-12-12T11:48:29.253Z,19.1
2022-12-12T12:18:29.249Z,19.1
2022-12-12T12:48:29.258Z,19.2
2022-12-12T13:18:29.245Z,19.2
2022-12-12T13:48:29.239Z,19.2
2022-12-12T14:18:29.251Z,19.2
2022-12-12T14:48:28.979Z,19.2
2022-12-12T15:18:29.245Z,19.3
2022-12-12T15:48:29.228Z,19.3
2022-12-12T16:18:28.996Z,19.3
2022-12-12T16:48:29.273Z,19.3
2022-12-12T17:18:29.243Z,19.3
2022-12-12T17:48:29.238Z,19.4
2022-12-12T18:18:28.984Z,19.4
2022-12-12T18:48:29.306Z,19.5
2022-12-12T19:18:28.987Z,19.5
2022-12-12T19:48:29.273Z,19.3
2022-12-12T20:18:29.228Z,19.2
2022-12-12T20:48:29.257Z,19.1
2022-12-12T21:18:29.263Z,19.0
2022-12-12T21:48:29.266Z,18.8
2022-12-12T22:18:29.264Z,18.6
2022-12-12T22:48:29.258Z,18.5
2022-12-12T23:18:29.243Z,18.3
2022-12-12T23:48:29.240Z,18.3
